sensor_id;sensor_type;location;lat;lon;timestamp;P1;durP1;ratioP1;P2;durP2;ratioP2
2576;SDS011;1298;51.252;6.802;2022-08-20T00:01:46;50.42;;;34.15;;
2576;SDS011;1298;51.252;6.802;2022-08-20T00:04:32;43.47;;;30.10;;
2576;SDS011;1298;51.252;6.802;2022-08-20T00:07:18;42.97;;;30.17;;
2576;SDS011;1298;51.252;6.802;2022-08-20T00:10:04;42.38;;;29.60;;
2576;SDS011;1298;51.252;6.802;2022-08-20T00:12:51;42.38;;;29.85;;
2576;SDS011;1298;51.252;6.802;2022-08-20T00:15:38;42.65;;;29.95;;
2576;SDS011;1298;51.252;6.802;2022-08-20T00:18:24;43.38;;;30.48;;
2576;SDS011;1298;51.252;6.802;2022-08-20T00:21:11;48.75;;;34.75;;
2576;SDS011;1298;51.252;6.802;2022-08-20T00:23:59;47.17;;;33.25;;
2576;SDS011;1298;51.252;6.802;2022-08-20T00:26:44;48.55;;;35.13;;
2576;SDS011;1298;51.252;6.802;2022-08-20T00:29:30;41.28;;;30.23;;
2576;SDS011;1298;51.252;6.802;2022-08-20T00:32:17;46.05;;;32.88;;
2576;SDS011;1298;51.252;6.802;2022-08-20T00:35:03;47.53;;;33.55;;
2576;SDS011;1298;51.252;6.802;2022-08-20T00:37:48;46.88;;;34.15;;
2576;SDS011;1298;51.252;6.802;2022-08-20T00:40:36;49.75;;;33.15;;
2576;SDS011;1298;51.252;6.802;2022-08-20T00:43:26;45.85;;;33.60;;
2576;SDS011;1298;51.252;6.802;2022-08-20T00:46:16;48.08;;;35.00;;
2576;SDS011;1298;51.252;6.802;2022-08-20T00:49:06;46.67;;;33.95;;
2576;SDS011;1298;51.252;6.802;2022-08-20T00:51:54;42.83;;;31.40;;
2576;SDS011;1298;51.252;6.802;2022-08-20T00:54:44;41.20;;;29.40;;
2576;SDS011;1298;51.252;6.802;2022-08-20T00:57:34;39.80;;;28.15;;
2576;SDS011;1298;51.252;6.802;2022-08-20T01:00:23;41.10;;;29.65;;
2576;SDS011;1298;51.252;6.802;2022-08-20T01:03:12;40.25;;;29.30;;
2576;SDS011;1298;51.252;6.802;2022-08-20T01:06:00;40.25;;;29.25;;
2576;SDS011;1298;51.252;6.802;2022-08-20T01:08:46;37.67;;;25.98;;
2576;SDS011;1298;51.252;6.802;2022-08-20T01:11:32;42.50;;;29.88;;
2576;SDS011;1298;51.252;6.802;2022-08-20T01:14:19;44.58;;;32.78;;
2576;SDS011;1298;51.252;6.802;2022-08-20T01:17:16;43.95;;;33.03;;
2576;SDS011;1298;51.252;6.802;2022-08-20T01:20:06;44.72;;;33.80;;
2576;SDS011;1298;51.252;6.802;2022-08-20T01:22:57;42.30;;;31.48;;
2576;SDS011;1298;51.252;6.802;2022-08-20T01:26:07;42.03;;;33.13;;
2576;SDS011;1298;51.252;6.802;2022-08-20T01:28:57;41.47;;;34.42;;
2576;SDS011;1298;51.252;6.802;2022-08-20T01:31:45;39.38;;;32.75;;
2576;SDS011;1298;51.252;6.802;2022-08-20T01:34:30;41.72;;;33.63;;
2576;SDS011;1298;51.252;6.802;2022-08-20T01:37:16;44.00;;;33.40;;
2576;SDS011;1298;51.252;6.802;2022-08-20T01:40:03;46.75;;;34.70;;
2576;SDS011;1298;51.252;6.802;2022-08-20T01:42:56;47.05;;;34.70;;
2576;SDS011;1298;51.252;6.802;2022-08-20T01:45:42;45.72;;;34.30;;
2576;SDS011;1298;51.252;6.802;2022-08-20T01:48:28;49.75;;;34.63;;
2576;SDS011;1298;51.252;6.802;2022-08-20T01:51:15;50.72;;;35.05;;
2576;SDS011;1298;51.252;6.802;2022-08-20T01:54:03;49.80;;;36.28;;
2576;SDS011;1298;51.252;6.802;2022-08-20T01:56:51;49.10;;;34.70;;
2576;SDS011;1298;51.252;6.802;2022-08-20T01:59:40;43.50;;;30.67;;
2576;SDS011;1298;51.252;6.802;2022-08-20T02:02:26;43.72;;;31.30;;
2576;SDS011;1298;51.252;6.802;2022-08-20T02:05:12;43.17;;;30.85;;
2576;SDS011;1298;51.252;6.802;2022-08-20T02:07:58;49.63;;;34.80;;
2576;SDS011;1298;51.252;6.802;2022-08-20T02:10:44;50.13;;;35.67;;
2576;SDS011;1298;51.252;6.802;2022-08-20T02:13:30;47.22;;;33.95;;
2576;SDS011;1298;51.252;6.802;2022-08-20T02:16:17;49.60;;;35.15;;
2576;SDS011;1298;51.252;6.802;2022-08-20T02:19:05;47.65;;;34.03;;
2576;SDS011;1298;51.252;6.802;2022-08-20T02:21:56;46.83;;;34.22;;
2576;SDS011;1298;51.252;6.802;2022-08-20T02:24:45;41.63;;;30.33;;
2576;SDS011;1298;51.252;6.802;2022-08-20T02:27:31;48.80;;;35.15;;
2576;SDS011;1298;51.252;6.802;2022-08-20T02:30:17;38.03;;;27.98;;
2576;SDS011;1298;51.252;6.802;2022-08-20T02:33:07;47.45;;;34.25;;
2576;SDS011;1298;51.252;6.802;2022-08-20T02:35:54;46.20;;;33.95;;
2576;SDS011;1298;51.252;6.802;2022-08-20T02:38:41;43.60;;;31.13;;
2576;SDS011;1298;51.252;6.802;2022-08-20T02:41:26;48.90;;;34.90;;
2576;SDS011;1298;51.252;6.802;2022-08-20T02:44:12;47.90;;;34.70;;
2576;SDS011;1298;51.252;6.802;2022-08-20T02:46:57;37.40;;;26.95;;
2576;SDS011;1298;51.252;6.802;2022-08-20T02:49:44;45.70;;;33.00;;
2576;SDS011;1298;51.252;6.802;2022-08-20T02:52:30;48.65;;;37.13;;
2576;SDS011;1298;51.252;6.802;2022-08-20T02:55:16;46.85;;;34.45;;
2576;SDS011;1298;51.252;6.802;2022-08-20T02:58:01;47.35;;;34.25;;
2576;SDS011;1298;51.252;6.802;2022-08-20T03:00:47;38.10;;;27.00;;
2576;SDS011;1298;51.252;6.802;2022-08-20T03:03:34;49.28;;;35.25;;
2576;SDS011;1298;51.252;6.802;2022-08-20T03:06:20;47.78;;;34.45;;
2576;SDS011;1298;51.252;6.802;2022-08-20T03:09:06;50.35;;;35.50;;
2576;SDS011;1298;51.252;6.802;2022-08-20T03:11:52;48.10;;;34.13;;
2576;SDS011;1298;51.252;6.802;2022-08-20T03:14:38;47.95;;;34.50;;
2576;SDS011;1298;51.252;6.802;2022-08-20T03:17:24;41.75;;;30.60;;
2576;SDS011;1298;51.252;6.802;2022-08-20T03:20:10;41.97;;;31.08;;
2576;SDS011;1298;51.252;6.802;2022-08-20T03:22:58;47.00;;;34.15;;
2576;SDS011;1298;51.252;6.802;2022-08-20T03:25:43;49.00;;;35.17;;
2576;SDS011;1298;51.252;6.802;2022-08-20T03:28:29;47.97;;;34.70;;
2576;SDS011;1298;51.252;6.802;2022-08-20T03:31:15;46.17;;;33.85;;
2576;SDS011;1298;51.252;6.802;2022-08-20T03:34:00;40.55;;;30.45;;
2576;SDS011;1298;51.252;6.802;2022-08-20T03:36:46;40.08;;;30.13;;
2576;SDS011;1298;51.252;6.802;2022-08-20T03:39:33;46.05;;;33.63;;
2576;SDS011;1298;51.252;6.802;2022-08-20T03:42:18;47.17;;;35.53;;
2576;SDS011;1298;51.252;6.802;2022-08-20T03:45:04;45.65;;;34.15;;
2576;SDS011;1298;51.252;6.802;2022-08-20T03:47:51;44.25;;;33.95;;
2576;SDS011;1298;51.252;6.802;2022-08-20T03:50:38;43.92;;;33.67;;
2576;SDS011;1298;51.252;6.802;2022-08-20T03:53:25;44.40;;;33.70;;
2576;SDS011;1298;51.252;6.802;2022-08-20T03:56:13;43.15;;;32.90;;
2576;SDS011;1298;51.252;6.802;2022-08-20T03:58:59;38.53;;;29.73;;
2576;SDS011;1298;51.252;6.802;2022-08-20T04:01:45;42.55;;;32.70;;
2576;SDS011;1298;51.252;6.802;2022-08-20T04:04:30;41.97;;;33.03;;
2576;SDS011;1298;51.252;6.802;2022-08-20T04:07:18;41.50;;;34.53;;
2576;SDS011;1298;51.252;6.802;2022-08-20T04:10:09;36.95;;;32.55;;
2576;SDS011;1298;51.252;6.802;2022-08-20T04:12:57;45.20;;;36.10;;
2576;SDS011;1298;51.252;6.802;2022-08-20T04:15:43;45.95;;;34.10;;
2576;SDS011;1298;51.252;6.802;2022-08-20T04:18:28;43.72;;;33.47;;
2576;SDS011;1298;51.252;6.802;2022-08-20T04:21:14;52.08;;;35.20;;
2576;SDS011;1298;51.252;6.802;2022-08-20T04:23:59;42.65;;;34.67;;
2576;SDS011;1298;51.252;6.802;2022-08-20T04:26:45;44.28;;;32.05;;
2576;SDS011;1298;51.252;6.802;2022-08-20T04:29:33;49.45;;;34.42;;
2576;SDS011;1298;51.252;6.802;2022-08-20T04:32:20;49.67;;;34.63;;
2576;SDS011;1298;51.252;6.802;2022-08-20T04:35:06;48.67;;;35.05;;
2576;SDS011;1298;51.252;6.802;2022-08-20T04:37:58;37.63;;;27.13;;
2576;SDS011;1298;51.252;6.802;2022-08-20T04:40:45;41.08;;;33.72;;
2576;SDS011;1298;51.252;6.802;2022-08-20T04:43:40;43.15;;;33.75;;
2576;SDS011;1298;51.252;6.802;2022-08-20T04:46:27;42.63;;;31.58;;
2576;SDS011;1298;51.252;6.802;2022-08-20T04:49:15;43.70;;;33.88;;
2576;SDS011;1298;51.252;6.802;2022-08-20T04:52:00;38.75;;;32.50;;
2576;SDS011;1298;51.252;6.802;2022-08-20T04:54:46;42.15;;;33.85;;
2576;SDS011;1298;51.252;6.802;2022-08-20T04:57:31;46.92;;;34.40;;
2576;SDS011;1298;51.252;6.802;2022-08-20T05:00:19;39.75;;;28.45;;
2576;SDS011;1298;51.252;6.802;2022-08-20T05:03:06;45.80;;;31.98;;
2576;SDS011;1298;51.252;6.802;2022-08-20T05:05:52;49.70;;;34.72;;
2576;SDS011;1298;51.252;6.802;2022-08-20T05:08:37;49.05;;;33.90;;
2576;SDS011;1298;51.252;6.802;2022-08-20T05:11:24;50.05;;;34.95;;
2576;SDS011;1298;51.252;6.802;2022-08-20T05:14:10;49.15;;;34.17;;
2576;SDS011;1298;51.252;6.802;2022-08-20T05:17:00;51.22;;;36.13;;
2576;SDS011;1298;51.252;6.802;2022-08-20T05:19:50;45.70;;;32.38;;
2576;SDS011;1298;51.252;6.802;2022-08-20T05:22:36;50.60;;;35.25;;
2576;SDS011;1298;51.252;6.802;2022-08-20T05:25:22;51.90;;;36.10;;
2576;SDS011;1298;51.252;6.802;2022-08-20T05:28:09;43.65;;;30.48;;
2576;SDS011;1298;51.252;6.802;2022-08-20T05:30:56;52.30;;;37.25;;
2576;SDS011;1298;51.252;6.802;2022-08-20T05:33:45;44.90;;;31.13;;
2576;SDS011;1298;51.252;6.802;2022-08-20T05:36:34;57.03;;;37.58;;
2576;SDS011;1298;51.252;6.802;2022-08-20T05:39:21;45.95;;;32.03;;
2576;SDS011;1298;51.252;6.802;2022-08-20T05:42:06;53.30;;;36.50;;
2576;SDS011;1298;51.252;6.802;2022-08-20T05:44:52;51.42;;;35.88;;
2576;SDS011;1298;51.252;6.802;2022-08-20T05:47:38;50.55;;;35.05;;
2576;SDS011;1298;51.252;6.802;2022-08-20T05:50:24;51.92;;;36.35;;
2576;SDS011;1298;51.252;6.802;2022-08-20T05:53:11;51.83;;;35.90;;
2576;SDS011;1298;51.252;6.802;2022-08-20T05:55:57;51.08;;;36.20;;
2576;SDS011;1298;51.252;6.802;2022-08-20T05:58:43;43.92;;;31.20;;
2576;SDS011;1298;51.252;6.802;2022-08-20T06:01:29;51.53;;;37.17;;
2576;SDS011;1298;51.252;6.802;2022-08-20T06:04:15;51.70;;;35.90;;
2576;SDS011;1298;51.252;6.802;2022-08-20T06:07:10;51.53;;;35.53;;
2576;SDS011;1298;51.252;6.802;2022-08-20T06:09:57;52.45;;;37.30;;
2576;SDS011;1298;51.252;6.802;2022-08-20T06:12:44;45.85;;;31.90;;
2576;SDS011;1298;51.252;6.802;2022-08-20T06:15:30;46.88;;;33.03;;
2576;SDS011;1298;51.252;6.802;2022-08-20T06:18:16;45.72;;;31.48;;
2576;SDS011;1298;51.252;6.802;2022-08-20T06:21:02;53.20;;;36.78;;
2576;SDS011;1298;51.252;6.802;2022-08-20T06:23:47;53.25;;;36.95;;
2576;SDS011;1298;51.252;6.802;2022-08-20T06:26:34;45.13;;;31.42;;
2576;SDS011;1298;51.252;6.802;2022-08-20T06:29:20;51.78;;;36.08;;
2576;SDS011;1298;51.252;6.802;2022-08-20T06:32:05;44.67;;;31.48;;
2576;SDS011;1298;51.252;6.802;2022-08-20T06:34:51;43.15;;;30.35;;
2576;SDS011;1298;51.252;6.802;2022-08-20T06:37:37;45.60;;;31.85;;
2576;SDS011;1298;51.252;6.802;2022-08-20T06:40:24;51.10;;;35.53;;
2576;SDS011;1298;51.252;6.802;2022-08-20T06:43:13;47.30;;;33.13;;
2576;SDS011;1298;51.252;6.802;2022-08-20T06:45:58;42.17;;;30.10;;
2576;SDS011;1298;51.252;6.802;2022-08-20T06:48:45;43.92;;;30.58;;
2576;SDS011;1298;51.252;6.802;2022-08-20T06:51:30;50.42;;;35.88;;
2576;SDS011;1298;51.252;6.802;2022-08-20T06:54:16;45.35;;;33.10;;
2576;SDS011;1298;51.252;6.802;2022-08-20T06:57:01;50.42;;;36.08;;
2576;SDS011;1298;51.252;6.802;2022-08-20T06:59:49;50.17;;;36.05;;
2576;SDS011;1298;51.252;6.802;2022-08-20T07:02:35;44.00;;;31.05;;
2576;SDS011;1298;51.252;6.802;2022-08-20T07:05:20;51.70;;;36.35;;
2576;SDS011;1298;51.252;6.802;2022-08-20T07:08:07;44.38;;;31.27;;
2576;SDS011;1298;51.252;6.802;2022-08-20T07:10:54;51.17;;;36.17;;
2576;SDS011;1298;51.252;6.802;2022-08-20T07:13:39;53.00;;;37.38;;
2576;SDS011;1298;51.252;6.802;2022-08-20T07:16:26;46.72;;;32.92;;
2576;SDS011;1298;51.252;6.802;2022-08-20T07:19:12;46.90;;;33.05;;
2576;SDS011;1298;51.252;6.802;2022-08-20T07:21:58;42.08;;;29.23;;
2576;SDS011;1298;51.252;6.802;2022-08-20T07:24:43;45.58;;;32.20;;
2576;SDS011;1298;51.252;6.802;2022-08-20T07:27:29;55.15;;;39.53;;
2576;SDS011;1298;51.252;6.802;2022-08-20T07:30:15;47.13;;;32.67;;
2576;SDS011;1298;51.252;6.802;2022-08-20T07:33:22;52.45;;;36.38;;
2576;SDS011;1298;51.252;6.802;2022-08-20T07:36:08;52.17;;;36.50;;
2576;SDS011;1298;51.252;6.802;2022-08-20T07:38:54;45.97;;;31.88;;
2576;SDS011;1298;51.252;6.802;2022-08-20T07:41:40;46.30;;;31.63;;
2576;SDS011;1298;51.252;6.802;2022-08-20T07:44:26;45.20;;;31.05;;
2576;SDS011;1298;51.252;6.802;2022-08-20T07:47:11;47.40;;;32.38;;
2576;SDS011;1298;51.252;6.802;2022-08-20T07:49:58;46.47;;;31.90;;
2576;SDS011;1298;51.252;6.802;2022-08-20T07:52:44;43.45;;;29.48;;
2576;SDS011;1298;51.252;6.802;2022-08-20T07:55:30;47.70;;;32.85;;
2576;SDS011;1298;51.252;6.802;2022-08-20T07:58:17;45.17;;;30.67;;
2576;SDS011;1298;51.252;6.802;2022-08-20T08:01:05;46.40;;;31.48;;
2576;SDS011;1298;51.252;6.802;2022-08-20T08:03:51;48.38;;;33.13;;
2576;SDS011;1298;51.252;6.802;2022-08-20T08:06:38;46.75;;;31.75;;
2576;SDS011;1298;51.252;6.802;2022-08-20T08:09:27;45.95;;;31.45;;
2576;SDS011;1298;51.252;6.802;2022-08-20T08:12:13;46.97;;;32.17;;
2576;SDS011;1298;51.252;6.802;2022-08-20T08:14:59;48.83;;;34.25;;
2576;SDS011;1298;51.252;6.802;2022-08-20T08:17:45;48.05;;;32.67;;
2576;SDS011;1298;51.252;6.802;2022-08-20T08:20:33;48.60;;;33.33;;
2576;SDS011;1298;51.252;6.802;2022-08-20T08:23:24;51.10;;;35.53;;
2576;SDS011;1298;51.252;6.802;2022-08-20T08:26:10;47.28;;;32.38;;
2576;SDS011;1298;51.252;6.802;2022-08-20T08:28:56;47.67;;;32.20;;
2576;SDS011;1298;51.252;6.802;2022-08-20T08:31:42;48.08;;;32.65;;
2576;SDS011;1298;51.252;6.802;2022-08-20T08:34:28;48.38;;;33.33;;
2576;SDS011;1298;51.252;6.802;2022-08-20T08:37:15;47.60;;;32.55;;
2576;SDS011;1298;51.252;6.802;2022-08-20T08:40:03;47.33;;;32.58;;
2576;SDS011;1298;51.252;6.802;2022-08-20T08:42:51;47.78;;;32.38;;
2576;SDS011;1298;51.252;6.802;2022-08-20T08:45:41;47.78;;;32.42;;
2576;SDS011;1298;51.252;6.802;2022-08-20T08:48:31;48.75;;;33.88;;
2576;SDS011;1298;51.252;6.802;2022-08-20T08:51:23;48.92;;;33.10;;
2576;SDS011;1298;51.252;6.802;2022-08-20T08:54:13;49.05;;;33.67;;
2576;SDS011;1298;51.252;6.802;2022-08-20T08:57:02;49.03;;;33.53;;
2576;SDS011;1298;51.252;6.802;2022-08-20T08:59:52;49.22;;;33.55;;
2576;SDS011;1298;51.252;6.802;2022-08-20T09:02:39;50.47;;;34.40;;
2576;SDS011;1298;51.252;6.802;2022-08-20T09:05:37;49.10;;;33.30;;
2576;SDS011;1298;51.252;6.802;2022-08-20T09:08:29;49.90;;;33.30;;
2576;SDS011;1298;51.252;6.802;2022-08-20T09:11:18;49.22;;;33.00;;
2576;SDS011;1298;51.252;6.802;2022-08-20T09:14:06;49.95;;;34.72;;
2576;SDS011;1298;51.252;6.802;2022-08-20T09:16:51;49.88;;;33.00;;
2576;SDS011;1298;51.252;6.802;2022-08-20T09:19:37;48.20;;;32.22;;
2576;SDS011;1298;51.252;6.802;2022-08-20T09:22:22;49.13;;;33.33;;
2576;SDS011;1298;51.252;6.802;2022-08-20T09:25:09;48.92;;;32.80;;
2576;SDS011;1298;51.252;6.802;2022-08-20T09:27:55;46.85;;;31.75;;
2576;SDS011;1298;51.252;6.802;2022-08-20T09:30:41;46.53;;;31.98;;
2576;SDS011;1298;51.252;6.802;2022-08-20T09:33:27;47.63;;;32.72;;
2576;SDS011;1298;51.252;6.802;2022-08-20T09:36:12;47.05;;;31.95;;
2576;SDS011;1298;51.252;6.802;2022-08-20T09:38:58;47.25;;;31.85;;
2576;SDS011;1298;51.252;6.802;2022-08-20T09:41:46;47.70;;;31.83;;
2576;SDS011;1298;51.252;6.802;2022-08-20T09:44:31;47.97;;;32.17;;
2576;SDS011;1298;51.252;6.802;2022-08-20T09:47:18;47.40;;;31.83;;
2576;SDS011;1298;51.252;6.802;2022-08-20T09:50:05;47.65;;;32.03;;
2576;SDS011;1298;51.252;6.802;2022-08-20T09:52:51;47.45;;;31.63;;
2576;SDS011;1298;51.252;6.802;2022-08-20T09:55:39;48.08;;;32.22;;
2576;SDS011;1298;51.252;6.802;2022-08-20T09:58:30;48.35;;;32.45;;
2576;SDS011;1298;51.252;6.802;2022-08-20T10:01:21;47.88;;;31.85;;
2576;SDS011;1298;51.252;6.802;2022-08-20T10:04:08;48.60;;;32.88;;
2576;SDS011;1298;51.252;6.802;2022-08-20T10:06:53;47.42;;;31.58;;
2576;SDS011;1298;51.252;6.802;2022-08-20T10:09:39;48.05;;;32.00;;
2576;SDS011;1298;51.252;6.802;2022-08-20T10:12:25;48.75;;;33.15;;
2576;SDS011;1298;51.252;6.802;2022-08-20T10:15:11;47.20;;;31.50;;
2576;SDS011;1298;51.252;6.802;2022-08-20T10:17:57;48.13;;;32.35;;
2576;SDS011;1298;51.252;6.802;2022-08-20T10:20:49;47.10;;;31.80;;
2576;SDS011;1298;51.252;6.802;2022-08-20T10:23:35;47.22;;;31.83;;
2576;SDS011;1298;51.252;6.802;2022-08-20T10:26:21;48.38;;;33.05;;
2576;SDS011;1298;51.252;6.802;2022-08-20T10:29:07;47.33;;;32.08;;
2576;SDS011;1298;51.252;6.802;2022-08-20T10:31:52;47.67;;;32.13;;
2576;SDS011;1298;51.252;6.802;2022-08-20T10:34:40;47.55;;;31.98;;
2576;SDS011;1298;51.252;6.802;2022-08-20T10:37:30;47.42;;;31.73;;
2576;SDS011;1298;51.252;6.802;2022-08-20T10:40:17;47.25;;;31.77;;
2576;SDS011;1298;51.252;6.802;2022-08-20T10:43:03;47.92;;;32.05;;
2576;SDS011;1298;51.252;6.802;2022-08-20T10:45:49;48.22;;;32.53;;
2576;SDS011;1298;51.252;6.802;2022-08-20T10:48:35;48.00;;;32.45;;
2576;SDS011;1298;51.252;6.802;2022-08-20T10:51:20;47.13;;;31.38;;
2576;SDS011;1298;51.252;6.802;2022-08-20T10:54:07;46.85;;;31.25;;
2576;SDS011;1298;51.252;6.802;2022-08-20T10:56:53;47.13;;;31.55;;
2576;SDS011;1298;51.252;6.802;2022-08-20T10:59:39;47.28;;;31.77;;
2576;SDS011;1298;51.252;6.802;2022-08-20T11:02:26;47.22;;;31.35;;
2576;SDS011;1298;51.252;6.802;2022-08-20T11:05:12;48.03;;;31.55;;
2576;SDS011;1298;51.252;6.802;2022-08-20T11:08:00;47.10;;;31.83;;
2576;SDS011;1298;51.252;6.802;2022-08-20T11:10:47;47.25;;;31.38;;
2576;SDS011;1298;51.252;6.802;2022-08-20T11:13:33;48.42;;;32.08;;
2576;SDS011;1298;51.252;6.802;2022-08-20T11:16:20;47.80;;;31.33;;
2576;SDS011;1298;51.252;6.802;2022-08-20T11:19:06;47.25;;;31.35;;
2576;SDS011;1298;51.252;6.802;2022-08-20T11:21:52;47.58;;;31.40;;
2576;SDS011;1298;51.252;6.802;2022-08-20T11:24:37;47.80;;;31.83;;
2576;SDS011;1298;51.252;6.802;2022-08-20T11:27:26;48.08;;;31.70;;
2576;SDS011;1298;51.252;6.802;2022-08-20T11:30:15;47.67;;;31.33;;
2576;SDS011;1298;51.252;6.802;2022-08-20T11:33:02;49.05;;;32.53;;
2576;SDS011;1298;51.252;6.802;2022-08-20T11:35:49;47.97;;;31.58;;
2576;SDS011;1298;51.252;6.802;2022-08-20T11:38:34;47.45;;;30.85;;
2576;SDS011;1298;51.252;6.802;2022-08-20T11:41:20;47.53;;;30.95;;
2576;SDS011;1298;51.252;6.802;2022-08-20T11:44:07;47.58;;;30.88;;
2576;SDS011;1298;51.252;6.802;2022-08-20T11:46:53;47.78;;;30.98;;
2576;SDS011;1298;51.252;6.802;2022-08-20T11:49:42;47.92;;;31.15;;
2576;SDS011;1298;51.252;6.802;2022-08-20T11:52:28;48.63;;;31.52;;
2576;SDS011;1298;51.252;6.802;2022-08-20T11:55:14;48.17;;;31.23;;
2576;SDS011;1298;51.252;6.802;2022-08-20T11:58:00;48.92;;;32.17;;
2576;SDS011;1298;51.252;6.802;2022-08-20T12:00:48;49.42;;;32.20;;
2576;SDS011;1298;51.252;6.802;2022-08-20T12:03:34;49.00;;;31.88;;
2576;SDS011;1298;51.252;6.802;2022-08-20T12:06:20;49.15;;;31.90;;
2576;SDS011;1298;51.252;6.802;2022-08-20T12:09:05;49.08;;;31.60;;
2576;SDS011;1298;51.252;6.802;2022-08-20T12:11:51;49.67;;;32.42;;
2576;SDS011;1298;51.252;6.802;2022-08-20T12:14:37;48.95;;;31.55;;
2576;SDS011;1298;51.252;6.802;2022-08-20T12:17:26;49.25;;;31.95;;
2576;SDS011;1298;51.252;6.802;2022-08-20T12:20:13;49.22;;;31.58;;
2576;SDS011;1298;51.252;6.802;2022-08-20T12:22:59;49.30;;;31.73;;
2576;SDS011;1298;51.252;6.802;2022-08-20T12:25:45;49.03;;;31.70;;
2576;SDS011;1298;51.252;6.802;2022-08-20T12:28:30;49.05;;;31.52;;
2576;SDS011;1298;51.252;6.802;2022-08-20T12:31:16;48.90;;;31.55;;
2576;SDS011;1298;51.252;6.802;2022-08-20T12:34:03;49.85;;;32.17;;
2576;SDS011;1298;51.252;6.802;2022-08-20T12:36:49;49.22;;;31.38;;
2576;SDS011;1298;51.252;6.802;2022-08-20T12:39:36;49.72;;;31.83;;
2576;SDS011;1298;51.252;6.802;2022-08-20T12:42:22;49.15;;;31.38;;
2576;SDS011;1298;51.252;6.802;2022-08-20T12:45:08;49.88;;;31.85;;
2576;SDS011;1298;51.252;6.802;2022-08-20T12:47:58;49.95;;;31.83;;
2576;SDS011;1298;51.252;6.802;2022-08-20T12:50:50;49.97;;;31.98;;
2576;SDS011;1298;51.252;6.802;2022-08-20T12:53:36;49.67;;;31.67;;
2576;SDS011;1298;51.252;6.802;2022-08-20T12:56:21;50.08;;;31.73;;
2576;SDS011;1298;51.252;6.802;2022-08-20T12:59:07;50.33;;;31.58;;
2576;SDS011;1298;51.252;6.802;2022-08-20T13:01:53;50.08;;;31.67;;
2576;SDS011;1298;51.252;6.802;2022-08-20T13:04:39;50.85;;;32.20;;
2576;SDS011;1298;51.252;6.802;2022-08-20T13:07:26;50.03;;;31.42;;
2576;SDS011;1298;51.252;6.802;2022-08-20T13:10:13;50.42;;;31.35;;
2576;SDS011;1298;51.252;6.802;2022-08-20T13:13:00;50.72;;;31.55;;
2576;SDS011;1298;51.252;6.802;2022-08-20T13:15:47;50.40;;;31.23;;
2576;SDS011;1298;51.252;6.802;2022-08-20T13:18:33;52.08;;;32.85;;
2576;SDS011;1298;51.252;6.802;2022-08-20T13:21:19;51.67;;;31.92;;
2576;SDS011;1298;51.252;6.802;2022-08-20T13:24:06;51.80;;;32.08;;
2576;SDS011;1298;51.252;6.802;2022-08-20T13:26:52;52.53;;;31.73;;
2576;SDS011;1298;51.252;6.802;2022-08-20T13:29:38;53.15;;;32.13;;
2576;SDS011;1298;51.252;6.802;2022-08-20T13:32:29;54.33;;;32.65;;
2576;SDS011;1298;51.252;6.802;2022-08-20T13:35:15;54.97;;;32.30;;
2576;SDS011;1298;51.252;6.802;2022-08-20T13:38:01;55.45;;;33.00;;
2576;SDS011;1298;51.252;6.802;2022-08-20T13:40:48;54.05;;;31.63;;
2576;SDS011;1298;51.252;6.802;2022-08-20T13:43:34;53.85;;;31.75;;
2576;SDS011;1298;51.252;6.802;2022-08-20T13:46:19;53.75;;;32.03;;
2576;SDS011;1298;51.252;6.802;2022-08-20T13:49:05;54.53;;;31.95;;
2576;SDS011;1298;51.252;6.802;2022-08-20T13:51:50;52.75;;;31.33;;
2576;SDS011;1298;51.252;6.802;2022-08-20T13:54:36;52.80;;;31.67;;
2576;SDS011;1298;51.252;6.802;2022-08-20T13:57:23;52.13;;;31.23;;
2576;SDS011;1298;51.252;6.802;2022-08-20T14:00:10;51.35;;;31.38;;
2576;SDS011;1298;51.252;6.802;2022-08-20T14:03:00;50.92;;;31.08;;
2576;SDS011;1298;51.252;6.802;2022-08-20T14:05:46;50.92;;;31.05;;
2576;SDS011;1298;51.252;6.802;2022-08-20T14:08:32;51.95;;;32.25;;
2576;SDS011;1298;51.252;6.802;2022-08-20T14:11:18;49.53;;;30.05;;
2576;SDS011;1298;51.252;6.802;2022-08-20T14:14:05;51.05;;;32.15;;
2576;SDS011;1298;51.252;6.802;2022-08-20T14:16:50;50.22;;;30.92;;
2576;SDS011;1298;51.252;6.802;2022-08-20T14:19:36;50.05;;;31.10;;
2576;SDS011;1298;51.252;6.802;2022-08-20T14:22:21;51.08;;;31.73;;
2576;SDS011;1298;51.252;6.802;2022-08-20T14:25:08;49.75;;;31.13;;
2576;SDS011;1298;51.252;6.802;2022-08-20T14:27:56;47.47;;;30.58;;
2576;SDS011;1298;51.252;6.802;2022-08-20T14:30:44;48.47;;;31.25;;
2576;SDS011;1298;51.252;6.802;2022-08-20T14:33:30;54.97;;;32.28;;
2576;SDS011;1298;51.252;6.802;2022-08-20T14:36:16;59.78;;;33.80;;
2576;SDS011;1298;51.252;6.802;2022-08-20T14:39:01;54.53;;;31.48;;
2576;SDS011;1298;51.252;6.802;2022-08-20T14:41:47;54.63;;;31.48;;
2576;SDS011;1298;51.252;6.802;2022-08-20T14:44:33;56.40;;;32.92;;
2576;SDS011;1298;51.252;6.802;2022-08-20T14:47:21;56.38;;;33.10;;
2576;SDS011;1298;51.252;6.802;2022-08-20T14:50:09;56.72;;;32.30;;
2576;SDS011;1298;51.252;6.802;2022-08-20T14:52:57;56.90;;;32.08;;
2576;SDS011;1298;51.252;6.802;2022-08-20T14:55:44;55.85;;;31.73;;
2576;SDS011;1298;51.252;6.802;2022-08-20T14:58:32;56.00;;;31.98;;
2576;SDS011;1298;51.252;6.802;2022-08-20T15:01:17;58.15;;;37.08;;
2576;SDS011;1298;51.252;6.802;2022-08-20T15:04:05;57.47;;;32.25;;
2576;SDS011;1298;51.252;6.802;2022-08-20T15:06:51;58.53;;;32.28;;
2576;SDS011;1298;51.252;6.802;2022-08-20T15:09:38;54.80;;;31.90;;
2576;SDS011;1298;51.252;6.802;2022-08-20T15:12:24;54.92;;;31.38;;
2576;SDS011;1298;51.252;6.802;2022-08-20T15:15:10;58.33;;;33.70;;
2576;SDS011;1298;51.252;6.802;2022-08-20T15:17:58;54.13;;;31.75;;
2576;SDS011;1298;51.252;6.802;2022-08-20T15:20:46;57.65;;;32.10;;
2576;SDS011;1298;51.252;6.802;2022-08-20T15:23:32;58.85;;;32.13;;
2576;SDS011;1298;51.252;6.802;2022-08-20T15:26:19;59.65;;;32.63;;
2576;SDS011;1298;51.252;6.802;2022-08-20T15:29:25;59.10;;;32.25;;
2576;SDS011;1298;51.252;6.802;2022-08-20T15:32:13;55.55;;;30.92;;
2576;SDS011;1298;51.252;6.802;2022-08-20T15:35:00;54.10;;;31.30;;
2576;SDS011;1298;51.252;6.802;2022-08-20T15:37:48;52.75;;;31.30;;
2576;SDS011;1298;51.252;6.802;2022-08-20T15:40:34;54.72;;;31.80;;
2576;SDS011;1298;51.252;6.802;2022-08-20T15:43:20;53.92;;;31.65;;
2576;SDS011;1298;51.252;6.802;2022-08-20T15:46:06;53.83;;;32.05;;
2576;SDS011;1298;51.252;6.802;2022-08-20T15:48:55;49.85;;;31.15;;
2576;SDS011;1298;51.252;6.802;2022-08-20T15:51:57;48.95;;;31.20;;
2576;SDS011;1298;51.252;6.802;2022-08-20T15:54:44;51.63;;;31.88;;
2576;SDS011;1298;51.252;6.802;2022-08-20T15:57:34;52.42;;;31.40;;
2576;SDS011;1298;51.252;6.802;2022-08-20T16:00:28;54.00;;;32.10;;
2576;SDS011;1298;51.252;6.802;2022-08-20T16:03:25;51.53;;;31.42;;
2576;SDS011;1298;51.252;6.802;2022-08-20T16:06:37;53.90;;;31.85;;
2576;SDS011;1298;51.252;6.802;2022-08-20T16:09:32;54.05;;;31.80;;
2576;SDS011;1298;51.252;6.802;2022-08-20T16:12:29;54.03;;;31.90;;
2576;SDS011;1298;51.252;6.802;2022-08-20T16:15:18;51.03;;;30.95;;
2576;SDS011;1298;51.252;6.802;2022-08-20T16:18:09;51.83;;;31.55;;
2576;SDS011;1298;51.252;6.802;2022-08-20T16:21:05;51.53;;;31.55;;
2576;SDS011;1298;51.252;6.802;2022-08-20T16:23:53;51.22;;;31.65;;
2576;SDS011;1298;51.252;6.802;2022-08-20T16:26:45;53.08;;;32.47;;
2576;SDS011;1298;51.252;6.802;2022-08-20T16:29:48;51.28;;;31.35;;
2576;SDS011;1298;51.252;6.802;2022-08-20T16:32:41;52.00;;;32.00;;
2576;SDS011;1298;51.252;6.802;2022-08-20T16:35:31;51.85;;;31.45;;
2576;SDS011;1298;51.252;6.802;2022-08-20T16:38:20;52.53;;;31.17;;
2576;SDS011;1298;51.252;6.802;2022-08-20T16:41:16;52.13;;;31.15;;
2576;SDS011;1298;51.252;6.802;2022-08-20T16:44:09;51.65;;;31.25;;
2576;SDS011;1298;51.252;6.802;2022-08-20T16:47:10;52.30;;;31.35;;
2576;SDS011;1298;51.252;6.802;2022-08-20T16:50:02;52.20;;;31.80;;